sensor_id;sensor_type;location;lat;lon;timestamp;temperature;humidity
32097;DHT22;18610;49.916;8.284;2023-12-28T00:01:00;5.40;99.90
32097;DHT22;18610;49.916;8.284;2023-12-28T00:03:27;5.50;99.90
32097;DHT22;18610;49.916;8.284;2023-12-28T00:05:54;5.60;99.90
32097;DHT22;18610;49.916;8.284;2023-12-28T00:08:21;5.80;99.90
32097;DHT22;18610;49.916;8.284;2023-12-28T00:10:48;5.80;99.90
32097;DHT22;18610;49.916;8.284;2023-12-28T00:13:14;5.90;99.90
32097;DHT22;18610;49.916;8.284;2023-12-28T00:15:41;6.00;99.90
32097;DHT22;18610;49.916;8.284;2023-12-28T00:18:09;6.10;99.90
32097;DHT22;18610;49.916;8.284;2023-12-28T00:20:36;6.30;99.90
32097;DHT22;18610;49.916;8.284;2023-12-28T00:23:03;6.40;99.90
32097;DHT22;18610;49.916;8.284;2023-12-28T00:25:30;6.40;99.90
32097;DHT22;18610;49.916;8.284;2023-12-28T00:28:00;6.60;99.90
32097;DHT22;18610;49.916;8.284;2023-12-28T00:30:26;6.70;99.90
32097;DHT22;18610;49.916;8.284;2023-12-28T00:32:53;6.70;99.90
32097;DHT22;18610;49.916;8.284;2023-12-28T00:35:21;6.80;99.90
32097;DHT22;18610;49.916;8.284;2023-12-28T00:37:48;6.80;99.90
32097;DHT22;18610;49.916;8.284;2023-12-28T00:40:15;6.80;99.90
32097;DHT22;18610;49.916;8.284;2023-12-28T00:42:41;6.90;99.90
32097;DHT22;18610;49.916;8.284;2023-12-28T00:45:08;6.90;99.90
32097;DHT22;18610;49.916;8.284;2023-12-28T00:47:35;6.90;99.90
32097;DHT22;18610;49.916;8.284;2023-12-28T00:50:02;6.90;99.90
32097;DHT22;18610;49.916;8.284;2023-12-28T00:52:30;7.00;99.90
32097;DHT22;18610;49.916;8.284;2023-12-28T00:54:56;6.90;99.90
32097;DHT22;18610;49.916;8.284;2023-12-28T00:57:23;7.00;99.90
32097;DHT22;18610;49.916;8.284;2023-12-28T00:59:50;7.00;99.90
32097;DHT22;18610;49.916;8.284;2023-12-28T01:02:16;7.00;99.90
32097;DHT22;18610;49.916;8.284;2023-12-28T01:04:43;7.00;99.90
32097;DHT22;18610;49.916;8.284;2023-12-28T01:07:10;7.00;99.90
32097;DHT22;18610;49.916;8.284;2023-12-28T01:09:37;7.00;99.90
32097;DHT22;18610;49.916;8.284;2023-12-28T01:12:05;7.10;99.90
32097;DHT22;18610;49.916;8.284;2023-12-28T01:14:31;7.10;99.90
32097;DHT22;18610;49.916;8.284;2023-12-28T01:16:58;7.10;99.90
32097;DHT22;18610;49.916;8.284;2023-12-28T01:19:25;7.10;99.90
32097;DHT22;18610;49.916;8.284;2023-12-28T01:21:52;7.20;99.90
32097;DHT22;18610;49.916;8.284;2023-12-28T01:24:18;7.20;99.90
32097;DHT22;18610;49.916;8.284;2023-12-28T01:26:46;7.30;99.90
32097;DHT22;18610;49.916;8.284;2023-12-28T01:29:13;7.40;99.90
32097;DHT22;18610;49.916;8.284;2023-12-28T01:31:39;7.50;99.90
32097;DHT22;18610;49.916;8.284;2023-12-28T01:34:06;7.50;99.90
32097;DHT22;18610;49.916;8.284;2023-12-28T01:36:34;7.50;99.90
32097;DHT22;18610;49.916;8.284;2023-12-28T01:39:01;7.60;99.90
32097;DHT22;18610;49.916;8.284;2023-12-28T01:41:28;7.60;99.90
32097;DHT22;18610;49.916;8.284;2023-12-28T01:43:56;7.70;99.90
32097;DHT22;18610;49.916;8.284;2023-12-28T01:46:23;7.60;99.90
32097;DHT22;18610;49.916;8.284;2023-12-28T01:48:50;7.60;99.90
32097;DHT22;18610;49.916;8.284;2023-12-28T01:51:17;7.70;99.90
32097;DHT22;18610;49.916;8.284;2023-12-28T01:53:45;7.70;99.90
32097;DHT22;18610;49.916;8.284;2023-12-28T01:56:14;7.70;99.90
32097;DHT22;18610;49.916;8.284;2023-12-28T01:58:42;7.80;99.90
32097;DHT22;18610;49.916;8.284;2023-12-28T02:01:11;7.80;99.90
32097;DHT22;18610;49.916;8.284;2023-12-28T02:03:38;7.80;99.90
32097;DHT22;18610;49.916;8.284;2023-12-28T02:06:06;7.90;99.90
32097;DHT22;18610;49.916;8.284;2023-12-28T02:08:33;8.00;99.90
32097;DHT22;18610;49.916;8.284;2023-12-28T02:11:00;8.00;99.90
32097;DHT22;18610;49.916;8.284;2023-12-28T02:13:26;8.00;99.90
32097;DHT22;18610;49.916;8.284;2023-12-28T02:15:56;8.00;99.90
32097;DHT22;18610;49.916;8.284;2023-12-28T02:18:30;8.00;99.90
32097;DHT22;18610;49.916;8.284;2023-12-28T02:21:02;8.00;99.90
32097;DHT22;18610;49.916;8.284;2023-12-28T02:23:28;8.00;99.90
32097;DHT22;18610;49.916;8.284;2023-12-28T02:25:56;8.10;99.90
32097;DHT22;18610;49.916;8.284;2023-12-28T02:28:23;8.20;99.90
32097;DHT22;18610;49.916;8.284;2023-12-28T02:30:50;8.20;99.90
32097;DHT22;18610;49.916;8.284;2023-12-28T02:33:21;8.20;99.90
32097;DHT22;18610;49.916;8.284;2023-12-28T02:35:55;8.30;99.90
32097;DHT22;18610;49.916;8.284;2023-12-28T02:38:24;8.40;99.90
32097;DHT22;18610;49.916;8.284;2023-12-28T02:40:51;8.40;99.90
32097;DHT22;18610;49.916;8.284;2023-12-28T02:43:20;8.50;99.90
32097;DHT22;18610;49.916;8.284;2023-12-28T02:45:47;8.50;99.90
32097;DHT22;18610;49.916;8.284;2023-12-28T02:48:14;8.50;99.90
32097;DHT22;18610;49.916;8.284;2023-12-28T02:50:40;8.70;99.90
32097;DHT22;18610;49.916;8.284;2023-12-28T02:53:07;8.70;99.90
32097;DHT22;18610;49.916;8.284;2023-12-28T02:55:34;8.80;99.90
32097;DHT22;18610;49.916;8.284;2023-12-28T02:58:00;8.80;99.90
32097;DHT22;18610;49.916;8.284;2023-12-28T03:00:28;8.80;99.90
32097;DHT22;18610;49.916;8.284;2023-12-28T03:02:55;8.90;99.90
32097;DHT22;18610;49.916;8.284;2023-12-28T03:05:22;8.90;99.90
32097;DHT22;18610;49.916;8.284;2023-12-28T03:07:48;9.00;99.90
32097;DHT22;18610;49.916;8.284;2023-12-28T03:10:15;9.00;99.90
32097;DHT22;18610;49.916;8.284;2023-12-28T03:12:42;9.00;99.90
32097;DHT22;18610;49.916;8.284;2023-12-28T03:15:09;9.10;99.90
32097;DHT22;18610;49.916;8.284;2023-12-28T03:17:39;9.10;99.90
32097;DHT22;18610;49.916;8.284;2023-12-28T03:20:06;9.10;99.90
32097;DHT22;18610;49.916;8.284;2023-12-28T03:22:33;9.10;99.90
32097;DHT22;18610;49.916;8.284;2023-12-28T03:25:00;9.20;99.90
32097;DHT22;18610;49.916;8.284;2023-12-28T03:27:27;9.10;99.90
32097;DHT22;18610;49.916;8.284;2023-12-28T03:29:54;9.10;99.90
32097;DHT22;18610;49.916;8.284;2023-12-28T03:32:20;9.20;99.90
32097;DHT22;18610;49.916;8.284;2023-12-28T03:34:49;9.10;99.90
32097;DHT22;18610;49.916;8.284;2023-12-28T03:37:15;9.10;99.90
32097;DHT22;18610;49.916;8.284;2023-12-28T03:39:42;9.10;99.90
32097;DHT22;18610;49.916;8.284;2023-12-28T03:42:09;9.10;99.90
32097;DHT22;18610;49.916;8.284;2023-12-28T03:44:36;9.10;99.90
32097;DHT22;18610;49.916;8.284;2023-12-28T03:47:03;9.10;99.90
32097;DHT22;18610;49.916;8.284;2023-12-28T03:49:30;9.10;99.90
32097;DHT22;18610;49.916;8.284;2023-12-28T03:51:58;9.10;99.90
32097;DHT22;18610;49.916;8.284;2023-12-28T03:54:24;9.10;99.90
32097;DHT22;18610;49.916;8.284;2023-12-28T03:56:51;9.10;99.90
32097;DHT22;18610;49.916;8.284;2023-12-28T03:59:19;9.00;99.90
32097;DHT22;18610;49.916;8.284;2023-12-28T04:01:46;9.00;99.90
32097;DHT22;18610;49.916;8.284;2023-12-28T04:04:12;9.00;99.90
32097;DHT22;18610;49.916;8.284;2023-12-28T04:06:39;9.00;99.90
32097;DHT22;18610;49.916;8.284;2023-12-28T04:09:08;9.00;99.90
32097;DHT22;18610;49.916;8.284;2023-12-28T04:11:35;9.00;99.90
32097;DHT22;18610;49.916;8.284;2023-12-28T04:14:03;9.00;99.90
32097;DHT22;18610;49.916;8.284;2023-12-28T04:16:29;9.00;99.90
32097;DHT22;18610;49.916;8.284;2023-12-28T04:18:56;9.00;99.90
32097;DHT22;18610;49.916;8.284;2023-12-28T04:21:23;9.00;99.90
32097;DHT22;18610;49.916;8.284;2023-12-28T04:23:49;9.00;99.90
32097;DHT22;18610;49.916;8.284;2023-12-28T04:26:19;9.00;99.90
32097;DHT22;18610;49.916;8.284;2023-12-28T04:28:46;9.00;99.90
32097;DHT22;18610;49.916;8.284;2023-12-28T04:31:12;9.00;99.90
32097;DHT22;18610;49.916;8.284;2023-12-28T04:33:39;9.00;99.90
32097;DHT22;18610;49.916;8.284;2023-12-28T04:36:06;9.10;99.90
32097;DHT22;18610;49.916;8.284;2023-12-28T04:38:33;9.10;99.90
32097;DHT22;18610;49.916;8.284;2023-12-28T04:41:00;9.10;99.90
32097;DHT22;18610;49.916;8.284;2023-12-28T04:43:28;9.10;99.90
32097;DHT22;18610;49.916;8.284;2023-12-28T04:45:55;9.10;99.90
32097;DHT22;18610;49.916;8.284;2023-12-28T04:48:22;9.10;99.90
32097;DHT22;18610;49.916;8.284;2023-12-28T04:50:51;9.10;99.90
32097;DHT22;18610;49.916;8.284;2023-12-28T04:53:19;9.10;99.90
32097;DHT22;18610;49.916;8.284;2023-12-28T04:55:45;9.00;99.90
32097;DHT22;18610;49.916;8.284;2023-12-28T04:58:12;9.00;99.90
32097;DHT22;18610;49.916;8.284;2023-12-28T05:00:41;9.00;99.90
32097;DHT22;18610;49.916;8.284;2023-12-28T05:03:07;9.00;99.90
32097;DHT22;18610;49.916;8.284;2023-12-28T05:05:34;9.10;99.90
32097;DHT22;18610;49.916;8.284;2023-12-28T05:08:00;9.00;99.90
32097;DHT22;18610;49.916;8.284;2023-12-28T05:10:27;9.00;99.90
32097;DHT22;18610;49.916;8.284;2023-12-28T05:12:54;9.10;99.90
32097;DHT22;18610;49.916;8.284;2023-12-28T05:15:20;9.00;99.90
32097;DHT22;18610;49.916;8.284;2023-12-28T05:17:48;9.00;99.90
32097;DHT22;18610;49.916;8.284;2023-12-28T05:20:16;9.00;99.90
32097;DHT22;18610;49.916;8.284;2023-12-28T05:22:42;9.00;99.90
32097;DHT22;18610;49.916;8.284;2023-12-28T05:25:09;9.00;99.90
32097;DHT22;18610;49.916;8.284;2023-12-28T05:27:36;8.90;99.90
32097;DHT22;18610;49.916;8.284;2023-12-28T05:30:03;8.90;99.90
32097;DHT22;18610;49.916;8.284;2023-12-28T05:32:30;9.00;99.90
32097;DHT22;18610;49.916;8.284;2023-12-28T05:34:58;9.00;99.90
32097;DHT22;18610;49.916;8.284;2023-12-28T05:37:25;9.00;99.90
32097;DHT22;18610;49.916;8.284;2023-12-28T05:39:51;9.00;99.90
32097;DHT22;18610;49.916;8.284;2023-12-28T05:42:18;9.00;99.90
32097;DHT22;18610;49.916;8.284;2023-12-28T05:44:45;9.10;99.90
32097;DHT22;18610;49.916;8.284;2023-12-28T05:47:12;9.20;99.90
32097;DHT22;18610;49.916;8.284;2023-12-28T05:49:38;9.10;99.90
32097;DHT22;18610;49.916;8.284;2023-12-28T05:52:06;9.10;99.90
32097;DHT22;18610;49.916;8.284;2023-12-28T05:54:33;9.10;99.90
32097;DHT22;18610;49.916;8.284;2023-12-28T05:57:00;9.10;99.90
32097;DHT22;18610;49.916;8.284;2023-12-28T05:59:26;9.10;99.90
32097;DHT22;18610;49.916;8.284;2023-12-28T06:01:53;9.10;99.90
32097;DHT22;18610;49.916;8.284;2023-12-28T06:04:20;9.10;99.90
32097;DHT22;18610;49.916;8.284;2023-12-28T06:06:46;9.00;99.90
32097;DHT22;18610;49.916;8.284;2023-12-28T06:09:14;9.00;99.90
32097;DHT22;18610;49.916;8.284;2023-12-28T06:11:41;8.90;99.90
32097;DHT22;18610;49.916;8.284;2023-12-28T06:14:08;8.90;99.90
32097;DHT22;18610;49.916;8.284;2023-12-28T06:16:35;8.90;99.90
32097;DHT22;18610;49.916;8.284;2023-12-28T06:19:01;8.90;99.90
32097;DHT22;18610;49.916;8.284;2023-12-28T06:21:28;8.80;99.90
32097;DHT22;18610;49.916;8.284;2023-12-28T06:23:55;8.90;99.90
32097;DHT22;18610;49.916;8.284;2023-12-28T06:26:23;8.90;99.90
32097;DHT22;18610;49.916;8.284;2023-12-28T06:28:50;8.90;99.90
32097;DHT22;18610;49.916;8.284;2023-12-28T06:31:17;8.90;99.90
32097;DHT22;18610;49.916;8.284;2023-12-28T06:33:43;8.90;99.90
32097;DHT22;18610;49.916;8.284;2023-12-28T06:36:11;8.90;99.90
32097;DHT22;18610;49.916;8.284;2023-12-28T06:38:38;8.90;99.90
32097;DHT22;18610;49.916;8.284;2023-12-28T06:41:10;8.90;99.90
32097;DHT22;18610;49.916;8.284;2023-12-28T06:43:38;8.90;99.90
32097;DHT22;18610;49.916;8.284;2023-12-28T06:46:05;8.90;99.90
32097;DHT22;18610;49.916;8.284;2023-12-28T06:48:32;8.90;99.90
32097;DHT22;18610;49.916;8.284;2023-12-28T06:50:59;8.90;99.90
32097;DHT22;18610;49.916;8.284;2023-12-28T06:53:25;8.90;99.90
32097;DHT22;18610;49.916;8.284;2023-12-28T06:55:52;8.90;99.90
32097;DHT22;18610;49.916;8.284;2023-12-28T06:58:18;9.00;99.90
32097;DHT22;18610;49.916;8.284;2023-12-28T07:00:46;9.00;99.90
32097;DHT22;18610;49.916;8.284;2023-12-28T07:03:12;9.00;99.90
32097;DHT22;18610;49.916;8.284;2023-12-28T07:05:39;9.00;99.90
32097;DHT22;18610;49.916;8.284;2023-12-28T07:08:06;9.00;99.90
32097;DHT22;18610;49.916;8.284;2023-12-28T07:10:33;9.00;99.90
32097;DHT22;18610;49.916;8.284;2023-12-28T07:12:59;9.00;99.90
32097;DHT22;18610;49.916;8.284;2023-12-28T07:15:26;9.00;99.90
32097;DHT22;18610;49.916;8.284;2023-12-28T07:17:54;9.00;99.90
32097;DHT22;18610;49.916;8.284;2023-12-28T07:20:21;9.00;99.90
32097;DHT22;18610;49.916;8.284;2023-12-28T07:22:47;9.10;99.90
32097;DHT22;18610;49.916;8.284;2023-12-28T07:25:14;9.10;99.90
32097;DHT22;18610;49.916;8.284;2023-12-28T07:27:41;9.10;99.90
32097;DHT22;18610;49.916;8.284;2023-12-28T07:30:08;9.10;99.90
32097;DHT22;18610;49.916;8.284;2023-12-28T07:32:35;9.10;99.90
32097;DHT22;18610;49.916;8.284;2023-12-28T07:35:03;9.10;99.90
32097;DHT22;18610;49.916;8.284;2023-12-28T07:37:30;9.10;99.90
32097;DHT22;18610;49.916;8.284;2023-12-28T07:39:57;9.10;99.90
32097;DHT22;18610;49.916;8.284;2023-12-28T07:42:24;9.10;99.90
32097;DHT22;18610;49.916;8.284;2023-12-28T07:44:50;9.00;99.90
32097;DHT22;18610;49.916;8.284;2023-12-28T07:47:17;9.10;99.90
32097;DHT22;18610;49.916;8.284;2023-12-28T07:49:44;9.10;99.90
32097;DHT22;18610;49.916;8.284;2023-12-28T07:52:11;9.20;99.90
32097;DHT22;18610;49.916;8.284;2023-12-28T07:54:38;9.20;99.90
32097;DHT22;18610;49.916;8.284;2023-12-28T07:57:05;9.10;99.90
32097;DHT22;18610;49.916;8.284;2023-12-28T07:59:31;9.10;99.90
32097;DHT22;18610;49.916;8.284;2023-12-28T08:01:57;9.10;99.90
32097;DHT22;18610;49.916;8.284;2023-12-28T08:04:24;9.10;99.90
32097;DHT22;18610;49.916;8.284;2023-12-28T08:06:50;9.20;99.90
32097;DHT22;18610;49.916;8.284;2023-12-28T08:09:18;9.20;99.90
32097;DHT22;18610;49.916;8.284;2023-12-28T08:11:45;9.20;99.90
32097;DHT22;18610;49.916;8.284;2023-12-28T08:14:12;9.20;99.90
32097;DHT22;18610;49.916;8.284;2023-12-28T08:16:38;9.20;99.90
32097;DHT22;18610;49.916;8.284;2023-12-28T08:19:06;9.30;99.90
32097;DHT22;18610;49.916;8.284;2023-12-28T08:21:32;9.20;99.90
32097;DHT22;18610;49.916;8.284;2023-12-28T08:23:59;9.20;99.90
32097;DHT22;18610;49.916;8.284;2023-12-28T08:26:27;9.20;99.90
32097;DHT22;18610;49.916;8.284;2023-12-28T08:28:53;9.30;99.90
32097;DHT22;18610;49.916;8.284;2023-12-28T08:31:21;9.20;99.90
32097;DHT22;18610;49.916;8.284;2023-12-28T08:33:48;9.20;99.90
32097;DHT22;18610;49.916;8.284;2023-12-28T08:36:15;9.20;99.90
32097;DHT22;18610;49.916;8.284;2023-12-28T08:38:42;9.20;99.90
32097;DHT22;18610;49.916;8.284;2023-12-28T08:41:18;9.20;99.90
32097;DHT22;18610;49.916;8.284;2023-12-28T08:43:46;9.20;99.90
32097;DHT22;18610;49.916;8.284;2023-12-28T08:46:12;9.20;99.90
32097;DHT22;18610;49.916;8.284;2023-12-28T08:48:40;9.30;99.90
32097;DHT22;18610;49.916;8.284;2023-12-28T08:51:06;9.20;99.90
32097;DHT22;18610;49.916;8.284;2023-12-28T08:53:33;9.20;99.90
32097;DHT22;18610;49.916;8.284;2023-12-28T08:56:00;9.20;99.90
32097;DHT22;18610;49.916;8.284;2023-12-28T08:58:27;9.20;99.90
32097;DHT22;18610;49.916;8.284;2023-12-28T09:00:55;9.20;99.90
32097;DHT22;18610;49.916;8.284;2023-12-28T09:03:21;9.30;99.90
32097;DHT22;18610;49.916;8.284;2023-12-28T09:05:48;9.20;99.90
32097;DHT22;18610;49.916;8.284;2023-12-28T09:08:15;9.20;99.90
32097;DHT22;18610;49.916;8.284;2023-12-28T09:10:42;9.30;99.90
32097;DHT22;18610;49.916;8.284;2023-12-28T09:13:15;9.30;99.90
32097;DHT22;18610;49.916;8.284;2023-12-28T09:15:42;9.30;99.90
32097;DHT22;18610;49.916;8.284;2023-12-28T09:18:10;9.40;99.90
32097;DHT22;18610;49.916;8.284;2023-12-28T09:20:36;9.40;99.90
32097;DHT22;18610;49.916;8.284;2023-12-28T09:23:03;9.40;99.90
32097;DHT22;18610;49.916;8.284;2023-12-28T09:25:31;9.40;99.90
32097;DHT22;18610;49.916;8.284;2023-12-28T09:27:58;9.40;99.90
32097;DHT22;18610;49.916;8.284;2023-12-28T09:30:25;9.50;99.90
32097;DHT22;18610;49.916;8.284;2023-12-28T09:32:51;9.60;99.90
32097;DHT22;18610;49.916;8.284;2023-12-28T09:35:20;9.70;99.90
32097;DHT22;18610;49.916;8.284;2023-12-28T09:37:46;9.90;99.90
32097;DHT22;18610;49.916;8.284;2023-12-28T09:40:14;10.00;99.90
32097;DHT22;18610;49.916;8.284;2023-12-28T09:42:51;10.20;99.90
32097;DHT22;18610;49.916;8.284;2023-12-28T09:45:18;10.30;99.90
32097;DHT22;18610;49.916;8.284;2023-12-28T09:47:46;10.40;99.90
32097;DHT22;18610;49.916;8.284;2023-12-28T09:50:17;10.50;99.90
32097;DHT22;18610;49.916;8.284;2023-12-28T09:52:46;10.70;99.90
32097;DHT22;18610;49.916;8.284;2023-12-28T09:55:12;10.80;99.90
32097;DHT22;18610;49.916;8.284;2023-12-28T09:57:40;10.90;99.90
32097;DHT22;18610;49.916;8.284;2023-12-28T10:00:08;11.10;99.90
32097;DHT22;18610;49.916;8.284;2023-12-28T10:02:37;11.10;99.90
32097;DHT22;18610;49.916;8.284;2023-12-28T10:05:06;11.20;99.90
32097;DHT22;18610;49.916;8.284;2023-12-28T10:07:40;11.20;99.90
32097;DHT22;18610;49.916;8.284;2023-12-28T10:10:09;11.30;99.90
32097;DHT22;18610;49.916;8.284;2023-12-28T10:12:36;11.30;99.90
32097;DHT22;18610;49.916;8.284;2023-12-28T10:15:04;11.30;99.90
32097;DHT22;18610;49.916;8.284;2023-12-28T10:17:32;11.40;99.90
32097;DHT22;18610;49.916;8.284;2023-12-28T10:19:59;11.40;99.90
32097;DHT22;18610;49.916;8.284;2023-12-28T10:22:30;11.50;99.90
32097;DHT22;18610;49.916;8.284;2023-12-28T10:24:57;11.50;99.90
32097;DHT22;18610;49.916;8.284;2023-12-28T10:27:26;11.60;99.90
32097;DHT22;18610;49.916;8.284;2023-12-28T10:29:53;11.70;99.90
32097;DHT22;18610;49.916;8.284;2023-12-28T10:32:20;11.80;99.90
32097;DHT22;18610;49.916;8.284;2023-12-28T10:34:48;11.80;99.90
32097;DHT22;18610;49.916;8.284;2023-12-28T10:37:16;11.80;99.90
32097;DHT22;18610;49.916;8.284;2023-12-28T10:39:47;11.90;99.90
32097;DHT22;18610;49.916;8.284;2023-12-28T10:42:18;12.00;99.90
32097;DHT22;18610;49.916;8.284;2023-12-28T10:44:53;12.20;99.90
32097;DHT22;18610;49.916;8.284;2023-12-28T10:47:25;12.40;99.90
32097;DHT22;18610;49.916;8.284;2023-12-28T10:49:58;12.50;99.90
32097;DHT22;18610;49.916;8.284;2023-12-28T10:52:29;12.70;99.90
32097;DHT22;18610;49.916;8.284;2023-12-28T10:55:21;12.80;99.90
32097;DHT22;18610;49.916;8.284;2023-12-28T10:57:58;12.90;99.90
32097;DHT22;18610;49.916;8.284;2023-12-28T11:00:30;13.10;99.90
32097;DHT22;18610;49.916;8.284;2023-12-28T11:03:03;13.30;99.90
32097;DHT22;18610;49.916;8.284;2023-12-28T11:05:31;13.40;99.90
32097;DHT22;18610;49.916;8.284;2023-12-28T11:07:59;13.70;99.90
32097;DHT22;18610;49.916;8.284;2023-12-28T11:10:27;14.20;99.90
32097;DHT22;18610;49.916;8.284;2023-12-28T11:12:57;14.70;99.90
32097;DHT22;18610;49.916;8.284;2023-12-28T11:15:23;15.70;99.90
32097;DHT22;18610;49.916;8.284;2023-12-28T11:17:53;16.70;99.90
32097;DHT22;18610;49.916;8.284;2023-12-28T11:20:20;17.50;98.30
32097;DHT22;18610;49.916;8.284;2023-12-28T11:22:47;18.30;96.60
32097;DHT22;18610;49.916;8.284;2023-12-28T11:25:15;18.90;94.50
32097;DHT22;18610;49.916;8.284;2023-12-28T11:27:43;19.00;93.80
32097;DHT22;18610;49.916;8.284;2023-12-28T11:30:12;19.40;92.20
32097;DHT22;18610;49.916;8.284;2023-12-28T11:32:40;19.60;91.60
32097;DHT22;18610;49.916;8.284;2023-12-28T11:35:11;19.20;91.30
32097;DHT22;18610;49.916;8.284;2023-12-28T11:37:38;18.30;91.90
32097;DHT22;18610;49.916;8.284;2023-12-28T11:40:11;17.10;93.50
32097;DHT22;18610;49.916;8.284;2023-12-28T11:42:47;15.90;95.80
32097;DHT22;18610;49.916;8.284;2023-12-28T11:45:16;15.00;98.10
32097;DHT22;18610;49.916;8.284;2023-12-28T11:47:43;14.60;99.50
32097;DHT22;18610;49.916;8.284;2023-12-28T11:50:11;14.40;99.90
32097;DHT22;18610;49.916;8.284;2023-12-28T11:52:38;14.00;99.90
32097;DHT22;18610;49.916;8.284;2023-12-28T11:55:06;13.70;99.90
32097;DHT22;18610;49.916;8.284;2023-12-28T11:57:32;14.20;99.90
32097;DHT22;18610;49.916;8.284;2023-12-28T12:00:00;15.40;99.90
32097;DHT22;18610;49.916;8.284;2023-12-28T12:02:27;15.50;99.30
32097;DHT22;18610;49.916;8.284;2023-12-28T12:04:54;14.90;99.90
32097;DHT22;18610;49.916;8.284;2023-12-28T12:07:24;14.20;99.90
32097;DHT22;18610;49.916;8.284;2023-12-28T12:09:55;13.80;99.90
32097;DHT22;18610;49.916;8.284;2023-12-28T12:12:22;14.50;99.90
32097;DHT22;18610;49.916;8.284;2023-12-28T12:14:49;15.10;99.90
32097;DHT22;18610;49.916;8.284;2023-12-28T12:17:15;15.90;99.90
32097;DHT22;18610;49.916;8.284;2023-12-28T12:19:42;16.80;99.00
32097;DHT22;18610;49.916;8.284;2023-12-28T12:22:09;17.10;97.90
32097;DHT22;18610;49.916;8.284;2023-12-28T12:24:37;17.60;97.20
32097;DHT22;18610;49.916;8.284;2023-12-28T12:27:04;17.40;96.70
32097;DHT22;18610;49.916;8.284;2023-12-28T12:29:31;17.20;96.90
32097;DHT22;18610;49.916;8.284;2023-12-28T12:31:58;17.10;97.00
32097;DHT22;18610;49.916;8.284;2023-12-28T12:34:27;16.30;97.70
32097;DHT22;18610;49.916;8.284;2023-12-28T12:36:54;15.70;98.70
32097;DHT22;18610;49.916;8.284;2023-12-28T12:39:23;15.70;99.70
32097;DHT22;18610;49.916;8.284;2023-12-28T12:41:51;16.10;99.30
32097;DHT22;18610;49.916;8.284;2023-12-28T12:44:19;16.30;98.80
32097;DHT22;18610;49.916;8.284;2023-12-28T12:46:46;16.30;98.70
32097;DHT22;18610;49.916;8.284;2023-12-28T12:49:13;15.90;99.00
32097;DHT22;18610;49.916;8.284;2023-12-28T12:51:39;15.30;99.70
32097;DHT22;18610;49.916;8.284;2023-12-28T12:54:08;14.80;99.90
32097;DHT22;18610;49.916;8.284;2023-12-28T12:56:35;14.50;99.90
32097;DHT22;18610;49.916;8.284;2023-12-28T12:59:03;14.40;99.90
32097;DHT22;18610;49.916;8.284;2023-12-28T13:01:30;14.10;99.90
32097;DHT22;18610;49.916;8.284;2023-12-28T13:03:57;13.60;99.90
32097;DHT22;18610;49.916;8.284;2023-12-28T13:06:23;13.20;99.90
32097;DHT22;18610;49.916;8.284;2023-12-28T13:08:50;12.90;99.90
32097;DHT22;18610;49.916;8.284;2023-12-28T13:11:17;12.70;99.90
32097;DHT22;18610;49.916;8.284;2023-12-28T13:13:44;12.70;99.90
32097;DHT22;18610;49.916;8.284;2023-12-28T13:16:13;12.80;99.90
32097;DHT22;18610;49.916;8.284;2023-12-28T13:18:39;12.50;99.90
32097;DHT22;18610;49.916;8.284;2023-12-28T13:21:06;12.40;99.90
32097;DHT22;18610;49.916;8.284;2023-12-28T13:23:33;12.30;99.90
32097;DHT22;18610;49.916;8.284;2023-12-28T13:26:00;12.20;99.90
32097;DHT22;18610;49.916;8.284;2023-12-28T13:28:27;12.10;99.90
32097;DHT22;18610;49.916;8.284;2023-12-28T13:30:54;12.00;99.90
32097;DHT22;18610;49.916;8.284;2023-12-28T13:33:22;12.10;99.90
32097;DHT22;18610;49.916;8.284;2023-12-28T13:35:49;12.60;99.90
32097;DHT22;18610;49.916;8.284;2023-12-28T13:38:16;13.20;99.90
32097;DHT22;18610;49.916;8.284;2023-12-28T13:40:43;13.70;99.90
32097;DHT22;18610;49.916;8.284;2023-12-28T13:43:10;13.70;99.90
32097;DHT22;18610;49.916;8.284;2023-12-28T13:45:36;13.70;99.90
32097;DHT22;18610;49.916;8.284;2023-12-28T13:48:03;13.70;99.90
32097;DHT22;18610;49.916;8.284;2023-12-28T13:50:31;13.60;99.90
32097;DHT22;18610;49.916;8.284;2023-12-28T13:52:58;13.30;99.90
32097;DHT22;18610;49.916;8.284;2023-12-28T13:55:25;13.00;99.90
32097;DHT22;18610;49.916;8.284;2023-12-28T13:57:53;12.70;99.90
32097;DHT22;18610;49.916;8.284;2023-12-28T14:00:20;12.50;99.90
32097;DHT22;18610;49.916;8.284;2023-12-28T14:02:47;12.20;99.90
32097;DHT22;18610;49.916;8.284;2023-12-28T14:05:13;12.00;99.90
32097;DHT22;18610;49.916;8.284;2023-12-28T14:07:41;11.80;99.90
32097;DHT22;18610;49.916;8.284;2023-12-28T14:10:08;11.70;99.90
32097;DHT22;18610;49.916;8.284;2023-12-28T14:12:35;11.60;99.90
32097;DHT22;18610;49.916;8.284;2023-12-28T14:15:02;11.50;99.90
32097;DHT22;18610;49.916;8.284;2023-12-28T14:17:28;11.60;99.90
32097;DHT22;18610;49.916;8.284;2023-12-28T14:19:55;11.90;99.90
32097;DHT22;18610;49.916;8.284;2023-12-28T14:22:22;12.30;99.90
32097;DHT22;18610;49.916;8.284;2023-12-28T14:24:52;12.70;99.90
32097;DHT22;18610;49.916;8.284;2023-12-28T14:27:19;13.20;99.90
32097;DHT22;18610;49.916;8.284;2023-12-28T14:29:47;13.70;99.90
32097;DHT22;18610;49.916;8.284;2023-12-28T14:32:16;14.10;99.90
32097;DHT22;18610;49.916;8.284;2023-12-28T14:34:43;14.30;99.90
32097;DHT22;18610;49.916;8.284;2023-12-28T14:37:10;14.40;99.90
32097;DHT22;18610;49.916;8.284;2023-12-28T14:39:37;14.50;99.90
32097;DHT22;18610;49.916;8.284;2023-12-28T14:42:05;14.70;99.90
32097;DHT22;18610;49.916;8.284;2023-12-28T14:44:32;14.70;99.90
32097;DHT22;18610;49.916;8.284;2023-12-28T14:46:59;14.80;99.90
32097;DHT22;18610;49.916;8.284;2023-12-28T14:49:26;14.70;99.90
32097;DHT22;18610;49.916;8.284;2023-12-28T14:51:52;14.80;99.90
32097;DHT22;18610;49.916;8.284;2023-12-28T14:54:19;14.70;99.90
32097;DHT22;18610;49.916;8.284;2023-12-28T14:56:46;14.50;99.90
32097;DHT22;18610;49.916;8.284;2023-12-28T14:59:14;14.20;99.90
32097;DHT22;18610;49.916;8.284;2023-12-28T15:01:40;13.90;99.90
32097;DHT22;18610;49.916;8.284;2023-12-28T15:04:07;13.60;99.90
32097;DHT22;18610;49.916;8.284;2023-12-28T15:06:34;13.30;99.90
32097;DHT22;18610;49.916;8.284;2023-12-28T15:09:00;13.00;99.90
32097;DHT22;18610;49.916;8.284;2023-12-28T15:11:27;12.70;99.90
32097;DHT22;18610;49.916;8.284;2023-12-28T15:13:55;12.40;99.90
32097;DHT22;18610;49.916;8.284;2023-12-28T15:16:23;12.10;99.90
32097;DHT22;18610;49.916;8.284;2023-12-28T15:18:50;11.80;99.90
32097;DHT22;18610;49.916;8.284;2023-12-28T15:21:18;11.60;99.90
32097;DHT22;18610;49.916;8.284;2023-12-28T15:23:45;11.40;99.90
32097;DHT22;18610;49.916;8.284;2023-12-28T15:26:13;11.30;99.90
32097;DHT22;18610;49.916;8.284;2023-12-28T15:28:40;11.10;99.90
32097;DHT22;18610;49.916;8.284;2023-12-28T15:31:06;11.00;99.90
32097;DHT22;18610;49.916;8.284;2023-12-28T15:33:34;10.90;99.90
32097;DHT22;18610;49.916;8.284;2023-12-28T15:36:01;10.80;99.90
32097;DHT22;18610;49.916;8.284;2023-12-28T15:38:28;10.70;99.90
32097;DHT22;18610;49.916;8.284;2023-12-28T15:40:54;10.60;99.90